sensor_id;sensor_type;location;lat;lon;timestamp;P1;durP1;ratioP1;P2;durP2;ratioP2
24681;SDS011;12802;53.390;-2.328;2023-10-19T00:00:34;1.45;;;0.90;;
24681;SDS011;12802;53.390;-2.328;2023-10-19T00:03:01;3.75;;;1.00;;
24681;SDS011;12802;53.390;-2.328;2023-10-19T00:05:28;1.63;;;1.00;;
24681;SDS011;12802;53.390;-2.328;2023-10-19T00:07:58;2.35;;;0.90;;
24681;SDS011;12802;53.390;-2.328;2023-10-19T00:10:30;1.58;;;0.88;;
24681;SDS011;12802;53.390;-2.328;2023-10-19T00:13:03;2.22;;;1.00;;
24681;SDS011;12802;53.390;-2.328;2023-10-19T00:15:33;1.63;;;1.10;;
24681;SDS011;12802;53.390;-2.328;2023-10-19T00:18:02;2.70;;;1.10;;
24681;SDS011;12802;53.390;-2.328;2023-10-19T00:20:42;1.77;;;0.85;;
24681;SDS011;12802;53.390;-2.328;2023-10-19T00:25:41;3.83;;;0.90;;
24681;SDS011;12802;53.390;-2.328;2023-10-19T00:28:08;2.40;;;1.00;;
24681;SDS011;12802;53.390;-2.328;2023-10-19T00:30:34;2.97;;;0.90;;
24681;SDS011;12802;53.390;-2.328;2023-10-19T00:33:03;1.40;;;0.70;;
24681;SDS011;12802;53.390;-2.328;2023-10-19T00:35:30;2.60;;;1.08;;
24681;SDS011;12802;53.390;-2.328;2023-10-19T00:40:53;0.82;;;0.70;;
24681;SDS011;12802;53.390;-2.328;2023-10-19T00:43:27;1.27;;;0.60;;
24681;SDS011;12802;53.390;-2.328;2023-10-19T00:45:57;1.30;;;0.70;;
24681;SDS011;12802;53.390;-2.328;2023-10-19T00:48:24;1.13;;;0.60;;
24681;SDS011;12802;53.390;-2.328;2023-10-19T00:50:52;1.05;;;0.70;;
24681;SDS011;12802;53.390;-2.328;2023-10-19T00:53:19;1.60;;;0.70;;
24681;SDS011;12802;53.390;-2.328;2023-10-19T00:55:47;1.33;;;0.70;;
24681;SDS011;12802;53.390;-2.328;2023-10-19T00:58:14;2.35;;;0.50;;
24681;SDS011;12802;53.390;-2.328;2023-10-19T01:00:43;0.63;;;0.47;;
24681;SDS011;12802;53.390;-2.328;2023-10-19T01:03:10;1.95;;;0.68;;
24681;SDS011;12802;53.390;-2.328;2023-10-19T01:05:42;0.93;;;0.40;;
24681;SDS011;12802;53.390;-2.328;2023-10-19T01:08:13;4.82;;;0.65;;
24681;SDS011;12802;53.390;-2.328;2023-10-19T01:11:07;4.97;;;0.57;;
24681;SDS011;12802;53.390;-2.328;2023-10-19T01:13:37;0.80;;;0.50;;
24681;SDS011;12802;53.390;-2.328;2023-10-19T01:16:03;4.13;;;0.50;;
24681;SDS011;12802;53.390;-2.328;2023-10-19T01:18:30;1.10;;;0.70;;
24681;SDS011;12802;53.390;-2.328;2023-10-19T01:20:58;1.13;;;0.60;;
24681;SDS011;12802;53.390;-2.328;2023-10-19T01:23:30;0.80;;;0.60;;
24681;SDS011;12802;53.390;-2.328;2023-10-19T01:25:57;1.20;;;0.50;;
24681;SDS011;12802;53.390;-2.328;2023-10-19T01:31:12;0.95;;;0.65;;
24681;SDS011;12802;53.390;-2.328;2023-10-19T01:33:43;1.65;;;0.70;;
24681;SDS011;12802;53.390;-2.328;2023-10-19T01:36:10;2.13;;;0.73;;
24681;SDS011;12802;53.390;-2.328;2023-10-19T01:38:36;1.10;;;0.50;;
24681;SDS011;12802;53.390;-2.328;2023-10-19T01:41:03;3.67;;;0.70;;
24681;SDS011;12802;53.390;-2.328;2023-10-19T01:43:43;3.60;;;0.60;;
24681;SDS011;12802;53.390;-2.328;2023-10-19T01:46:10;1.40;;;0.70;;
24681;SDS011;12802;53.390;-2.328;2023-10-19T01:48:37;2.85;;;0.60;;
24681;SDS011;12802;53.390;-2.328;2023-10-19T01:51:05;0.90;;;0.50;;
24681;SDS011;12802;53.390;-2.328;2023-10-19T01:53:36;2.65;;;0.60;;
24681;SDS011;12802;53.390;-2.328;2023-10-19T01:56:04;2.83;;;0.80;;
24681;SDS011;12802;53.390;-2.328;2023-10-19T01:58:34;2.97;;;0.60;;
24681;SDS011;12802;53.390;-2.328;2023-10-19T02:01:05;1.30;;;0.50;;
24681;SDS011;12802;53.390;-2.328;2023-10-19T02:03:37;3.95;;;0.80;;
24681;SDS011;12802;53.390;-2.328;2023-10-19T02:06:07;1.25;;;0.70;;
24681;SDS011;12802;53.390;-2.328;2023-10-19T02:09:05;1.80;;;0.70;;
24681;SDS011;12802;53.390;-2.328;2023-10-19T02:11:51;0.98;;;0.65;;
24681;SDS011;12802;53.390;-2.328;2023-10-19T02:14:25;1.38;;;0.85;;
24681;SDS011;12802;53.390;-2.328;2023-10-19T02:16:55;1.73;;;0.60;;
24681;SDS011;12802;53.390;-2.328;2023-10-19T02:19:23;0.90;;;0.80;;
24681;SDS011;12802;53.390;-2.328;2023-10-19T02:21:50;1.23;;;0.65;;
24681;SDS011;12802;53.390;-2.328;2023-10-19T02:24:17;1.52;;;0.82;;
24681;SDS011;12802;53.390;-2.328;2023-10-19T02:26:44;1.63;;;0.82;;
24681;SDS011;12802;53.390;-2.328;2023-10-19T02:29:12;1.55;;;0.90;;
24681;SDS011;12802;53.390;-2.328;2023-10-19T02:31:41;1.98;;;0.73;;
24681;SDS011;12802;53.390;-2.328;2023-10-19T02:34:08;1.58;;;0.90;;
24681;SDS011;12802;53.390;-2.328;2023-10-19T02:36:35;1.70;;;1.10;;
24681;SDS011;12802;53.390;-2.328;2023-10-19T02:39:04;2.38;;;1.20;;
24681;SDS011;12802;53.390;-2.328;2023-10-19T02:41:40;3.47;;;1.13;;
24681;SDS011;12802;53.390;-2.328;2023-10-19T02:44:16;3.15;;;1.10;;
24681;SDS011;12802;53.390;-2.328;2023-10-19T02:46:43;2.80;;;1.50;;
24681;SDS011;12802;53.390;-2.328;2023-10-19T02:49:11;2.60;;;1.15;;
24681;SDS011;12802;53.390;-2.328;2023-10-19T02:51:42;4.40;;;1.60;;
24681;SDS011;12802;53.390;-2.328;2023-10-19T02:54:12;1.75;;;1.35;;
24681;SDS011;12802;53.390;-2.328;2023-10-19T02:56:46;1.58;;;1.48;;
24681;SDS011;12802;53.390;-2.328;2023-10-19T02:59:20;2.63;;;1.60;;
24681;SDS011;12802;53.390;-2.328;2023-10-19T03:01:53;3.05;;;1.63;;
24681;SDS011;12802;53.390;-2.328;2023-10-19T03:04:27;3.15;;;1.20;;
24681;SDS011;12802;53.390;-2.328;2023-10-19T03:06:54;2.03;;;1.30;;
24681;SDS011;12802;53.390;-2.328;2023-10-19T03:09:23;3.47;;;1.63;;
24681;SDS011;12802;53.390;-2.328;2023-10-19T03:11:52;4.17;;;1.63;;
24681;SDS011;12802;53.390;-2.328;2023-10-19T03:14:19;2.17;;;1.42;;
24681;SDS011;12802;53.390;-2.328;2023-10-19T03:16:50;2.80;;;1.58;;
24681;SDS011;12802;53.390;-2.328;2023-10-19T03:19:16;2.40;;;1.27;;
24681;SDS011;12802;53.390;-2.328;2023-10-19T03:21:42;3.10;;;1.75;;
24681;SDS011;12802;53.390;-2.328;2023-10-19T03:24:10;5.30;;;2.97;;
24681;SDS011;12802;53.390;-2.328;2023-10-19T03:26:51;8.88;;;4.45;;
24681;SDS011;12802;53.390;-2.328;2023-10-19T03:29:19;8.95;;;6.60;;
24681;SDS011;12802;53.390;-2.328;2023-10-19T03:31:57;9.52;;;7.57;;
24681;SDS011;12802;53.390;-2.328;2023-10-19T03:34:26;14.68;;;10.23;;
24681;SDS011;12802;53.390;-2.328;2023-10-19T03:36:57;12.40;;;10.52;;
24681;SDS011;12802;53.390;-2.328;2023-10-19T03:39:27;14.40;;;11.02;;
24681;SDS011;12802;53.390;-2.328;2023-10-19T03:41:53;14.82;;;11.93;;
24681;SDS011;12802;53.390;-2.328;2023-10-19T03:44:19;16.45;;;13.32;;
24681;SDS011;12802;53.390;-2.328;2023-10-19T03:46:48;18.23;;;13.70;;
24681;SDS011;12802;53.390;-2.328;2023-10-19T03:49:26;18.98;;;14.07;;
24681;SDS011;12802;53.390;-2.328;2023-10-19T03:51:59;20.33;;;15.23;;
24681;SDS011;12802;53.390;-2.328;2023-10-19T03:54:35;20.42;;;15.35;;
24681;SDS011;12802;53.390;-2.328;2023-10-19T03:57:07;22.05;;;15.90;;
24681;SDS011;12802;53.390;-2.328;2023-10-19T04:02:03;22.23;;;16.25;;
24681;SDS011;12802;53.390;-2.328;2023-10-19T04:04:35;26.00;;;18.88;;
24681;SDS011;12802;53.390;-2.328;2023-10-19T04:07:04;25.92;;;18.05;;
24681;SDS011;12802;53.390;-2.328;2023-10-19T04:09:43;24.05;;;18.42;;
24681;SDS011;12802;53.390;-2.328;2023-10-19T04:12:34;25.10;;;18.17;;
24681;SDS011;12802;53.390;-2.328;2023-10-19T04:15:01;29.35;;;19.17;;
24681;SDS011;12802;53.390;-2.328;2023-10-19T04:17:42;25.92;;;18.67;;
24681;SDS011;12802;53.390;-2.328;2023-10-19T04:20:08;27.52;;;21.00;;
24681;SDS011;12802;53.390;-2.328;2023-10-19T04:22:44;31.08;;;20.92;;
24681;SDS011;12802;53.390;-2.328;2023-10-19T04:25:12;32.08;;;22.02;;
24681;SDS011;12802;53.390;-2.328;2023-10-19T04:27:42;33.55;;;23.35;;
24681;SDS011;12802;53.390;-2.328;2023-10-19T04:30:08;34.00;;;21.80;;
24681;SDS011;12802;53.390;-2.328;2023-10-19T04:32:44;33.00;;;22.23;;
24681;SDS011;12802;53.390;-2.328;2023-10-19T04:35:11;27.83;;;20.75;;
24681;SDS011;12802;53.390;-2.328;2023-10-19T04:37:47;31.60;;;21.00;;
24681;SDS011;12802;53.390;-2.328;2023-10-19T04:40:13;31.42;;;21.33;;
24681;SDS011;12802;53.390;-2.328;2023-10-19T04:42:39;28.65;;;20.83;;
24681;SDS011;12802;53.390;-2.328;2023-10-19T04:45:05;27.48;;;19.38;;
24681;SDS011;12802;53.390;-2.328;2023-10-19T04:47:32;27.05;;;18.70;;
24681;SDS011;12802;53.390;-2.328;2023-10-19T04:50:01;25.80;;;18.63;;
24681;SDS011;12802;53.390;-2.328;2023-10-19T04:52:28;27.02;;;18.80;;
24681;SDS011;12802;53.390;-2.328;2023-10-19T04:54:54;24.55;;;18.63;;
24681;SDS011;12802;53.390;-2.328;2023-10-19T04:57:20;22.33;;;17.88;;
24681;SDS011;12802;53.390;-2.328;2023-10-19T04:59:46;25.23;;;18.38;;
24681;SDS011;12802;53.390;-2.328;2023-10-19T05:02:13;24.10;;;18.15;;
24681;SDS011;12802;53.390;-2.328;2023-10-19T05:04:39;29.20;;;18.23;;
24681;SDS011;12802;53.390;-2.328;2023-10-19T05:09:37;23.65;;;17.67;;
24681;SDS011;12802;53.390;-2.328;2023-10-19T05:12:05;21.58;;;17.02;;
24681;SDS011;12802;53.390;-2.328;2023-10-19T05:14:34;21.60;;;16.80;;
24681;SDS011;12802;53.390;-2.328;2023-10-19T05:17:04;21.67;;;16.25;;
24681;SDS011;12802;53.390;-2.328;2023-10-19T05:19:31;24.55;;;15.57;;
24681;SDS011;12802;53.390;-2.328;2023-10-19T05:21:57;18.13;;;14.75;;
24681;SDS011;12802;53.390;-2.328;2023-10-19T05:24:23;17.17;;;14.40;;
24681;SDS011;12802;53.390;-2.328;2023-10-19T05:26:49;18.25;;;13.98;;
24681;SDS011;12802;53.390;-2.328;2023-10-19T05:29:15;18.85;;;13.70;;
24681;SDS011;12802;53.390;-2.328;2023-10-19T05:31:41;17.73;;;14.02;;
24681;SDS011;12802;53.390;-2.328;2023-10-19T05:34:07;16.05;;;12.77;;
24681;SDS011;12802;53.390;-2.328;2023-10-19T05:36:34;14.85;;;11.15;;
24681;SDS011;12802;53.390;-2.328;2023-10-19T05:39:00;13.02;;;9.38;;
24681;SDS011;12802;53.390;-2.328;2023-10-19T05:41:29;12.38;;;9.52;;
24681;SDS011;12802;53.390;-2.328;2023-10-19T05:43:56;11.38;;;8.65;;
24681;SDS011;12802;53.390;-2.328;2023-10-19T05:46:22;9.48;;;7.60;;
24681;SDS011;12802;53.390;-2.328;2023-10-19T05:48:50;7.55;;;6.70;;
24681;SDS011;12802;53.390;-2.328;2023-10-19T05:51:16;10.38;;;6.40;;
24681;SDS011;12802;53.390;-2.328;2023-10-19T05:53:42;10.40;;;6.55;;
24681;SDS011;12802;53.390;-2.328;2023-10-19T05:56:09;8.60;;;5.80;;
24681;SDS011;12802;53.390;-2.328;2023-10-19T05:58:36;8.10;;;5.70;;
24681;SDS011;12802;53.390;-2.328;2023-10-19T06:01:02;7.40;;;5.63;;
24681;SDS011;12802;53.390;-2.328;2023-10-19T06:03:29;6.70;;;5.30;;
24681;SDS011;12802;53.390;-2.328;2023-10-19T06:05:55;8.70;;;5.53;;
24681;SDS011;12802;53.390;-2.328;2023-10-19T06:08:22;9.20;;;5.30;;
24681;SDS011;12802;53.390;-2.328;2023-10-19T06:10:51;8.05;;;5.25;;
24681;SDS011;12802;53.390;-2.328;2023-10-19T06:13:18;7.20;;;4.88;;
24681;SDS011;12802;53.390;-2.328;2023-10-19T06:15:44;6.72;;;4.57;;
24681;SDS011;12802;53.390;-2.328;2023-10-19T06:18:10;7.30;;;4.53;;
24681;SDS011;12802;53.390;-2.328;2023-10-19T06:20:36;8.80;;;4.45;;
24681;SDS011;12802;53.390;-2.328;2023-10-19T06:23:03;8.00;;;4.38;;
24681;SDS011;12802;53.390;-2.328;2023-10-19T06:25:30;9.80;;;5.03;;
24681;SDS011;12802;53.390;-2.328;2023-10-19T06:27:56;10.55;;;4.72;;
24681;SDS011;12802;53.390;-2.328;2023-10-19T06:30:22;8.35;;;5.38;;
24681;SDS011;12802;53.390;-2.328;2023-10-19T06:32:55;10.23;;;5.93;;
24681;SDS011;12802;53.390;-2.328;2023-10-19T06:35:28;11.45;;;5.93;;
24681;SDS011;12802;53.390;-2.328;2023-10-19T06:37:56;13.38;;;6.15;;
24681;SDS011;12802;53.390;-2.328;2023-10-19T06:40:24;10.23;;;6.80;;
24681;SDS011;12802;53.390;-2.328;2023-10-19T06:42:51;13.65;;;6.20;;
24681;SDS011;12802;53.390;-2.328;2023-10-19T06:45:18;14.35;;;6.78;;
24681;SDS011;12802;53.390;-2.328;2023-10-19T06:47:47;10.82;;;6.70;;
24681;SDS011;12802;53.390;-2.328;2023-10-19T06:50:15;11.27;;;6.32;;
24681;SDS011;12802;53.390;-2.328;2023-10-19T06:52:42;11.32;;;6.57;;
24681;SDS011;12802;53.390;-2.328;2023-10-19T06:55:09;12.10;;;6.18;;
24681;SDS011;12802;53.390;-2.328;2023-10-19T06:57:48;11.88;;;5.57;;
24681;SDS011;12802;53.390;-2.328;2023-10-19T07:00:15;12.32;;;5.68;;
24681;SDS011;12802;53.390;-2.328;2023-10-19T07:02:48;10.57;;;5.20;;
24681;SDS011;12802;53.390;-2.328;2023-10-19T07:05:15;11.85;;;4.72;;
24681;SDS011;12802;53.390;-2.328;2023-10-19T07:07:50;10.90;;;4.50;;
24681;SDS011;12802;53.390;-2.328;2023-10-19T07:10:17;9.70;;;4.32;;
24681;SDS011;12802;53.390;-2.328;2023-10-19T07:12:44;9.98;;;4.10;;
24681;SDS011;12802;53.390;-2.328;2023-10-19T07:15:11;10.40;;;3.80;;
24681;SDS011;12802;53.390;-2.328;2023-10-19T07:17:44;8.57;;;3.55;;
24681;SDS011;12802;53.390;-2.328;2023-10-19T07:20:11;13.82;;;3.95;;
24681;SDS011;12802;53.390;-2.328;2023-10-19T07:22:56;9.57;;;3.67;;
24681;SDS011;12802;53.390;-2.328;2023-10-19T07:25:28;10.40;;;3.70;;
24681;SDS011;12802;53.390;-2.328;2023-10-19T07:27:56;10.95;;;3.72;;
24681;SDS011;12802;53.390;-2.328;2023-10-19T07:30:25;8.38;;;3.50;;
24681;SDS011;12802;53.390;-2.328;2023-10-19T07:32:51;11.88;;;3.60;;
24681;SDS011;12802;53.390;-2.328;2023-10-19T07:35:24;10.93;;;3.75;;
24681;SDS011;12802;53.390;-2.328;2023-10-19T07:37:53;9.80;;;3.90;;
24681;SDS011;12802;53.390;-2.328;2023-10-19T07:40:19;9.50;;;3.53;;
24681;SDS011;12802;53.390;-2.328;2023-10-19T07:42:45;10.35;;;4.55;;
24681;SDS011;12802;53.390;-2.328;2023-10-19T07:45:14;14.50;;;4.72;;
24681;SDS011;12802;53.390;-2.328;2023-10-19T07:47:40;18.27;;;4.90;;
24681;SDS011;12802;53.390;-2.328;2023-10-19T07:50:07;11.93;;;5.22;;
24681;SDS011;12802;53.390;-2.328;2023-10-19T07:52:38;17.98;;;4.80;;
24681;SDS011;12802;53.390;-2.328;2023-10-19T07:55:04;14.15;;;4.95;;
24681;SDS011;12802;53.390;-2.328;2023-10-19T07:57:31;10.93;;;4.50;;
24681;SDS011;12802;53.390;-2.328;2023-10-19T07:59:59;11.38;;;3.53;;
24681;SDS011;12802;53.390;-2.328;2023-10-19T08:02:25;8.10;;;2.85;;
24681;SDS011;12802;53.390;-2.328;2023-10-19T08:04:52;9.02;;;2.30;;
24681;SDS011;12802;53.390;-2.328;2023-10-19T08:07:18;7.00;;;2.22;;
24681;SDS011;12802;53.390;-2.328;2023-10-19T08:09:44;4.68;;;1.48;;
24681;SDS011;12802;53.390;-2.328;2023-10-19T08:12:10;2.13;;;1.00;;
24681;SDS011;12802;53.390;-2.328;2023-10-19T08:14:39;5.40;;;1.20;;
24681;SDS011;12802;53.390;-2.328;2023-10-19T08:17:05;2.00;;;0.75;;
24681;SDS011;12802;53.390;-2.328;2023-10-19T08:19:34;2.23;;;0.67;;
24681;SDS011;12802;53.390;-2.328;2023-10-19T08:22:01;2.00;;;0.68;;
24681;SDS011;12802;53.390;-2.328;2023-10-19T08:24:27;2.92;;;0.50;;
24681;SDS011;12802;53.390;-2.328;2023-10-19T08:26:55;1.83;;;0.43;;
24681;SDS011;12802;53.390;-2.328;2023-10-19T08:29:21;4.18;;;0.55;;
24681;SDS011;12802;53.390;-2.328;2023-10-19T08:31:49;2.72;;;0.45;;
24681;SDS011;12802;53.390;-2.328;2023-10-19T08:34:15;1.60;;;0.50;;
24681;SDS011;12802;53.390;-2.328;2023-10-19T08:36:42;3.40;;;0.47;;
24681;SDS011;12802;53.390;-2.328;2023-10-19T08:39:09;1.33;;;0.57;;
24681;SDS011;12802;53.390;-2.328;2023-10-19T08:41:38;4.18;;;0.40;;
24681;SDS011;12802;53.390;-2.328;2023-10-19T08:44:06;1.05;;;0.40;;
24681;SDS011;12802;53.390;-2.328;2023-10-19T08:46:41;2.90;;;0.75;;
24681;SDS011;12802;53.390;-2.328;2023-10-19T08:49:13;1.48;;;0.40;;
24681;SDS011;12802;53.390;-2.328;2023-10-19T08:51:40;1.85;;;0.60;;
24681;SDS011;12802;53.390;-2.328;2023-10-19T08:54:10;1.77;;;0.50;;
24681;SDS011;12802;53.390;-2.328;2023-10-19T08:56:37;3.22;;;0.60;;
24681;SDS011;12802;53.390;-2.328;2023-10-19T08:59:04;4.15;;;0.80;;
24681;SDS011;12802;53.390;-2.328;2023-10-19T09:01:31;5.70;;;1.30;;
24681;SDS011;12802;53.390;-2.328;2023-10-19T09:04:00;8.20;;;1.23;;
24681;SDS011;12802;53.390;-2.328;2023-10-19T09:06:27;4.57;;;1.10;;
24681;SDS011;12802;53.390;-2.328;2023-10-19T09:11:25;7.67;;;1.70;;
24681;SDS011;12802;53.390;-2.328;2023-10-19T09:13:52;5.80;;;1.67;;
24681;SDS011;12802;53.390;-2.328;2023-10-19T09:16:21;6.63;;;1.67;;
24681;SDS011;12802;53.390;-2.328;2023-10-19T09:18:51;8.00;;;2.30;;
24681;SDS011;12802;53.390;-2.328;2023-10-19T09:21:20;12.23;;;2.50;;
24681;SDS011;12802;53.390;-2.328;2023-10-19T09:23:50;9.57;;;2.40;;
24681;SDS011;12802;53.390;-2.328;2023-10-19T09:26:16;10.68;;;2.22;;
24681;SDS011;12802;53.390;-2.328;2023-10-19T09:28:45;11.43;;;2.55;;
24681;SDS011;12802;53.390;-2.328;2023-10-19T09:31:15;10.45;;;2.75;;
24681;SDS011;12802;53.390;-2.328;2023-10-19T09:33:42;8.93;;;2.00;;
24681;SDS011;12802;53.390;-2.328;2023-10-19T09:36:11;16.08;;;2.88;;
24681;SDS011;12802;53.390;-2.328;2023-10-19T09:41:07;11.75;;;2.05;;
24681;SDS011;12802;53.390;-2.328;2023-10-19T09:46:07;13.30;;;2.35;;
24681;SDS011;12802;53.390;-2.328;2023-10-19T09:48:39;11.20;;;2.42;;
24681;SDS011;12802;53.390;-2.328;2023-10-19T09:51:06;12.98;;;2.60;;
24681;SDS011;12802;53.390;-2.328;2023-10-19T09:53:34;11.13;;;2.30;;
24681;SDS011;12802;53.390;-2.328;2023-10-19T09:56:00;7.32;;;2.20;;
24681;SDS011;12802;53.390;-2.328;2023-10-19T09:58:31;9.43;;;2.40;;
24681;SDS011;12802;53.390;-2.328;2023-10-19T10:01:00;13.07;;;2.50;;
24681;SDS011;12802;53.390;-2.328;2023-10-19T10:03:44;11.25;;;2.40;;
24681;SDS011;12802;53.390;-2.328;2023-10-19T10:06:11;11.18;;;2.47;;
24681;SDS011;12802;53.390;-2.328;2023-10-19T10:08:38;15.40;;;2.70;;
24681;SDS011;12802;53.390;-2.328;2023-10-19T10:14:02;16.50;;;2.72;;
24681;SDS011;12802;53.390;-2.328;2023-10-19T10:16:46;9.15;;;2.13;;
24681;SDS011;12802;53.390;-2.328;2023-10-19T10:19:14;11.43;;;2.15;;
24681;SDS011;12802;53.390;-2.328;2023-10-19T10:22:03;11.45;;;2.65;;
24681;SDS011;12802;53.390;-2.328;2023-10-19T10:24:31;12.27;;;2.63;;
24681;SDS011;12802;53.390;-2.328;2023-10-19T10:26:58;10.60;;;2.63;;
24681;SDS011;12802;53.390;-2.328;2023-10-19T10:29:28;10.77;;;2.22;;
24681;SDS011;12802;53.390;-2.328;2023-10-19T10:31:56;14.98;;;2.95;;
24681;SDS011;12802;53.390;-2.328;2023-10-19T10:37:05;12.27;;;2.53;;
24681;SDS011;12802;53.390;-2.328;2023-10-19T10:39:35;13.43;;;2.75;;
24681;SDS011;12802;53.390;-2.328;2023-10-19T10:42:02;16.50;;;2.70;;
24681;SDS011;12802;53.390;-2.328;2023-10-19T10:44:40;12.73;;;2.90;;
24681;SDS011;12802;53.390;-2.328;2023-10-19T10:47:07;15.27;;;3.00;;
24681;SDS011;12802;53.390;-2.328;2023-10-19T10:49:35;16.52;;;3.05;;
24681;SDS011;12802;53.390;-2.328;2023-10-19T10:52:14;15.80;;;3.20;;
24681;SDS011;12802;53.390;-2.328;2023-10-19T10:54:49;18.40;;;3.63;;
24681;SDS011;12802;53.390;-2.328;2023-10-19T10:57:15;12.95;;;2.78;;
24681;SDS011;12802;53.390;-2.328;2023-10-19T10:59:41;15.07;;;3.10;;
24681;SDS011;12802;53.390;-2.328;2023-10-19T11:02:17;14.65;;;2.97;;
24681;SDS011;12802;53.390;-2.328;2023-10-19T11:04:44;16.65;;;3.42;;
24681;SDS011;12802;53.390;-2.328;2023-10-19T11:07:20;16.02;;;3.33;;
24681;SDS011;12802;53.390;-2.328;2023-10-19T11:09:46;16.30;;;3.10;;
24681;SDS011;12802;53.390;-2.328;2023-10-19T11:12:15;16.90;;;3.28;;
24681;SDS011;12802;53.390;-2.328;2023-10-19T11:14:54;15.07;;;3.30;;
24681;SDS011;12802;53.390;-2.328;2023-10-19T11:17:21;17.20;;;3.60;;
24681;SDS011;12802;53.390;-2.328;2023-10-19T11:19:56;14.10;;;3.25;;
24681;SDS011;12802;53.390;-2.328;2023-10-19T11:22:25;21.92;;;4.25;;
24681;SDS011;12802;53.390;-2.328;2023-10-19T11:24:54;16.05;;;3.33;;
24681;SDS011;12802;53.390;-2.328;2023-10-19T11:27:26;12.55;;;3.17;;
24681;SDS011;12802;53.390;-2.328;2023-10-19T11:29:53;20.42;;;3.50;;
24681;SDS011;12802;53.390;-2.328;2023-10-19T11:32:21;12.13;;;2.88;;
24681;SDS011;12802;53.390;-2.328;2023-10-19T11:34:50;15.27;;;2.90;;
24681;SDS011;12802;53.390;-2.328;2023-10-19T11:37:17;21.50;;;3.47;;
24681;SDS011;12802;53.390;-2.328;2023-10-19T11:39:43;15.23;;;3.05;;
24681;SDS011;12802;53.390;-2.328;2023-10-19T11:42:09;11.63;;;2.88;;
24681;SDS011;12802;53.390;-2.328;2023-10-19T11:44:35;17.30;;;3.42;;
24681;SDS011;12802;53.390;-2.328;2023-10-19T11:47:01;16.60;;;3.40;;
24681;SDS011;12802;53.390;-2.328;2023-10-19T11:49:28;15.48;;;3.47;;
24681;SDS011;12802;53.390;-2.328;2023-10-19T11:51:54;13.50;;;3.17;;
24681;SDS011;12802;53.390;-2.328;2023-10-19T11:54:20;12.38;;;2.90;;
24681;SDS011;12802;53.390;-2.328;2023-10-19T11:56:46;16.02;;;3.42;;
24681;SDS011;12802;53.390;-2.328;2023-10-19T11:59:13;17.17;;;3.22;;
24681;SDS011;12802;53.390;-2.328;2023-10-19T12:01:40;18.00;;;3.17;;
24681;SDS011;12802;53.390;-2.328;2023-10-19T12:04:07;14.77;;;3.63;;
24681;SDS011;12802;53.390;-2.328;2023-10-19T12:06:34;13.55;;;3.72;;
24681;SDS011;12802;53.390;-2.328;2023-10-19T12:09:00;17.88;;;3.45;;
24681;SDS011;12802;53.390;-2.328;2023-10-19T12:11:39;16.45;;;3.30;;
24681;SDS011;12802;53.390;-2.328;2023-10-19T12:14:06;16.65;;;2.88;;
24681;SDS011;12802;53.390;-2.328;2023-10-19T12:16:37;20.02;;;3.78;;
24681;SDS011;12802;53.390;-2.328;2023-10-19T12:19:04;16.85;;;3.22;;
24681;SDS011;12802;53.390;-2.328;2023-10-19T12:21:30;15.30;;;2.88;;
24681;SDS011;12802;53.390;-2.328;2023-10-19T12:23:56;16.13;;;3.47;;
24681;SDS011;12802;53.390;-2.328;2023-10-19T12:26:24;12.38;;;3.10;;
24681;SDS011;12802;53.390;-2.328;2023-10-19T12:28:50;18.25;;;3.55;;
24681;SDS011;12802;53.390;-2.328;2023-10-19T12:31:16;19.33;;;4.03;;
24681;SDS011;12802;53.390;-2.328;2023-10-19T12:33:43;14.98;;;3.33;;
24681;SDS011;12802;53.390;-2.328;2023-10-19T12:36:10;15.38;;;3.70;;
24681;SDS011;12802;53.390;-2.328;2023-10-19T12:38:54;20.85;;;4.15;;
24681;SDS011;12802;53.390;-2.328;2023-10-19T12:41:21;15.65;;;3.28;;
24681;SDS011;12802;53.390;-2.328;2023-10-19T12:43:47;16.80;;;3.88;;
24681;SDS011;12802;53.390;-2.328;2023-10-19T12:46:13;17.27;;;3.47;;
24681;SDS011;12802;53.390;-2.328;2023-10-19T12:48:41;15.27;;;3.03;;
24681;SDS011;12802;53.390;-2.328;2023-10-19T12:51:07;21.48;;;3.53;;
24681;SDS011;12802;53.390;-2.328;2023-10-19T12:53:36;16.60;;;3.60;;
24681;SDS011;12802;53.390;-2.328;2023-10-19T12:56:04;14.02;;;3.38;;
24681;SDS011;12802;53.390;-2.328;2023-10-19T12:58:35;15.68;;;3.40;;
24681;SDS011;12802;53.390;-2.328;2023-10-19T13:01:02;13.50;;;3.40;;
24681;SDS011;12802;53.390;-2.328;2023-10-19T13:03:30;15.30;;;3.38;;
24681;SDS011;12802;53.390;-2.328;2023-10-19T13:06:01;13.23;;;3.58;;
24681;SDS011;12802;53.390;-2.328;2023-10-19T13:08:31;18.27;;;3.45;;
24681;SDS011;12802;53.390;-2.328;2023-10-19T13:10:57;19.23;;;3.50;;
24681;SDS011;12802;53.390;-2.328;2023-10-19T13:13:23;15.27;;;3.10;;
24681;SDS011;12802;53.390;-2.328;2023-10-19T13:15:49;12.52;;;3.45;;
24681;SDS011;12802;53.390;-2.328;2023-10-19T13:18:15;11.30;;;3.00;;
24681;SDS011;12802;53.390;-2.328;2023-10-19T13:20:52;12.02;;;3.17;;
24681;SDS011;12802;53.390;-2.328;2023-10-19T13:23:19;18.88;;;3.47;;
24681;SDS011;12802;53.390;-2.328;2023-10-19T13:25:49;14.65;;;3.17;;
24681;SDS011;12802;53.390;-2.328;2023-10-19T13:28:16;15.13;;;3.45;;
24681;SDS011;12802;53.390;-2.328;2023-10-19T13:30:45;15.57;;;3.45;;
24681;SDS011;12802;53.390;-2.328;2023-10-19T13:33:13;10.45;;;3.17;;
24681;SDS011;12802;53.390;-2.328;2023-10-19T13:35:39;19.75;;;3.75;;
24681;SDS011;12802;53.390;-2.328;2023-10-19T13:38:07;16.27;;;3.53;;
24681;SDS011;12802;53.390;-2.328;2023-10-19T13:40:34;14.85;;;3.65;;
24681;SDS011;12802;53.390;-2.328;2023-10-19T13:43:01;12.18;;;3.35;;
24681;SDS011;12802;53.390;-2.328;2023-10-19T13:45:31;14.35;;;3.58;;
24681;SDS011;12802;53.390;-2.328;2023-10-19T13:48:01;19.20;;;3.50;;
24681;SDS011;12802;53.390;-2.328;2023-10-19T13:52:57;17.73;;;3.80;;
24681;SDS011;12802;53.390;-2.328;2023-10-19T13:55:25;11.77;;;3.40;;
24681;SDS011;12802;53.390;-2.328;2023-10-19T13:57:52;15.68;;;3.28;;
24681;SDS011;12802;53.390;-2.328;2023-10-19T14:00:18;12.60;;;2.65;;
24681;SDS011;12802;53.390;-2.328;2023-10-19T14:02:51;17.83;;;3.45;;
24681;SDS011;12802;53.390;-2.328;2023-10-19T14:05:17;13.85;;;3.28;;
24681;SDS011;12802;53.390;-2.328;2023-10-19T14:07:49;11.18;;;2.58;;
24681;SDS011;12802;53.390;-2.328;2023-10-19T14:10:16;13.52;;;2.97;;
24681;SDS011;12802;53.390;-2.328;2023-10-19T14:12:45;13.55;;;2.67;;
24681;SDS011;12802;53.390;-2.328;2023-10-19T14:15:12;14.20;;;3.17;;
24681;SDS011;12802;53.390;-2.328;2023-10-19T14:17:46;15.25;;;3.05;;
24681;SDS011;12802;53.390;-2.328;2023-10-19T14:20:13;16.17;;;2.78;;
24681;SDS011;12802;53.390;-2.328;2023-10-19T14:22:43;14.98;;;3.33;;
24681;SDS011;12802;53.390;-2.328;2023-10-19T14:25:11;14.18;;;3.13;;
24681;SDS011;12802;53.390;-2.328;2023-10-19T14:27:44;15.20;;;3.53;;
24681;SDS011;12802;53.390;-2.328;2023-10-19T14:30:16;13.65;;;3.03;;
24681;SDS011;12802;53.390;-2.328;2023-10-19T14:32:43;12.98;;;3.30;;
24681;SDS011;12802;53.390;-2.328;2023-10-19T14:35:12;16.20;;;4.00;;
24681;SDS011;12802;53.390;-2.328;2023-10-19T14:37:43;16.58;;;3.50;;
24681;SDS011;12802;53.390;-2.328;2023-10-19T14:40:12;16.00;;;3.42;;
24681;SDS011;12802;53.390;-2.328;2023-10-19T14:42:40;16.83;;;3.45;;
24681;SDS011;12802;53.390;-2.328;2023-10-19T14:45:11;16.40;;;3.22;;
24681;SDS011;12802;53.390;-2.328;2023-10-19T14:47:42;13.35;;;3.67;;
24681;SDS011;12802;53.390;-2.328;2023-10-19T14:50:16;16.38;;;3.63;;
24681;SDS011;12802;53.390;-2.328;2023-10-19T14:52:43;18.85;;;3.50;;
24681;SDS011;12802;53.390;-2.328;2023-10-19T14:55:11;14.27;;;3.03;;
24681;SDS011;12802;53.390;-2.328;2023-10-19T14:57:40;15.98;;;3.30;;
24681;SDS011;12802;53.390;-2.328;2023-10-19T15:00:08;17.65;;;3.08;;
24681;SDS011;12802;53.390;-2.328;2023-10-19T15:02:48;13.23;;;2.90;;
24681;SDS011;12802;53.390;-2.328;2023-10-19T15:05:15;12.95;;;3.42;;